• Join FlightAware (Why Join?)
  • Login
  • US Flag 
02:26PM EDT


 

Airport Tracker/Info


-or-


 

Live Flight TrackerFlight Track Log ✈ SWA718 ✈ 19-Apr-2013 ✈ KCRP - KHOU

Flight Track Log - Related Links

Times and Time Zones

All times are in EDT time to prevent confusion due to time zone crossing. See the SWA718 flight status page for this flight to view local times or setup timezone preferences in your user account.

Time Position Orientation Groundspeed Altitude Reporting Facility
EDT Latitude Longitude Course Direction KTS MPH feet Rate Location/Type
04:13PM 27.7794 -97.5158 333° Northwest 156 180 700  Level Houston Center
04:14PM 27.8422 -97.5522 333° Northwest 191 220 4,400 2,520 Climbing Houston Center
04:15PM 27.8892 -97.5578 354° North 200 230 6,900 2,220 Climbing Houston Center
04:16PM 27.9142 -97.5228 51° Northeast 222 255 8,100 2,040 Climbing Houston Center
04:17PM 27.9775 -97.4706 36° Northeast 277 319 10,400 2,820 Climbing Houston Center
04:18PM 28.0583 -97.4094 34° Northeast 332 382 14,000 3,360 Climbing Houston Center
04:19PM 28.1592 -97.3278 36° Northeast 369 425 17,500 2,940 Climbing Houston Center
04:20PM 28.2358 -97.2283 49° Northeast 408 470 20,100 2,400 Climbing Houston Center
04:21PM 28.3250 -97.1344 43° Northeast 435 501 22,500 2,220 Climbing Houston Center
04:22PM 28.4169 -97.0317 45° Northeast 460 529 24,800 2,040 Climbing Houston Center
04:23PM 28.5144 -96.9261 44° Northeast 478 550 26,800 960 Climbing Houston Center
04:24PM 28.6372 -96.7861 45° Northeast 513 590 26,900 -960 Climbing Houston Center
04:25PM 28.7372 -96.6739 45° Northeast 513 590 24,900 -2,040 Descending Houston Center
04:26PM 28.8336 -96.5661 44° Northeast 496 571 22,700 -2,160 Descending Houston Center
04:27PM 28.9267 -96.4622 44° Northeast 479 551 20,500 -2,100 Descending Houston Center
04:28PM 29.0150 -96.3619 45° Northeast 460 529 18,400 -2,280 Descending Houston Center
04:29PM 29.1150 -96.2489 45° Northeast 432 497 15,900 -2,220 Descending Houston Center
04:30PM 29.1756 -96.1817 44° Northeast 412 474 14,400 -2,040 Descending Houston Center
04:30PM 29.1944 -96.1611 44° Northeast 407 468 13,800 -1,740 Descending Houston Center
04:31PM 29.2697 -96.0756 45° Northeast 388 447 12,200 -900 Descending Houston Center
04:32PM 29.3217 -95.9706 60° Northeast 366 421 12,000 -540 Descending Houston Center
04:33PM 29.3544 -95.8611 71° East 365 420 11,100 -1,020 Descending Houston Center
04:34PM 29.3847 -95.7542 72° East 356 410 9,900 -1,200 Descending Houston Center
04:35PM 29.4214 -95.6364 70° East 304 350 8,500 -1,200 Descending Houston Center
04:36PM 29.4383 -95.5728 73° East 296 341 7,400 -1,740 Descending Houston Center
04:37PM 29.4875 -95.4869 57° Northeast 230 265 5,000 -1,740 Descending Houston Center
04:38PM 29.5222 -95.4367 52° Northeast 231 266 3,900 -1,020 Descending Houston Center
04:39PM 29.5594 -95.3831 51° Northeast 222 255 3,000 -1,260 Descending Houston Center
04:41PM 29.5975 -95.3322 49° Northeast 173 199 1,300 -1,260 Descending Houston Center
04:42PM 29.6222 -95.3039 45° Northeast 172 198 500 -600 Descending Houston Center
04:43PM 29.6544 -95.2719 41° Northeast 153 176 100 -420 Descending Houston Center